Time;durP1;ratioP1;P1;durP2;ratioP2;P2;SDS_P1;SDS_P2;PMS_P1;PMS_P2;Temp;Humidity;BMP_temperature;BMP_pressure;BME280_temperature;BME280_humidity;BME280_pressure;Samples;Min_cycle;Max_cycle;Signal;HPM_P1;HPM_P2
2023/12/15 00:02:29;;;;;;;69.72;24.00;;;4.70;83.90;;;;;;5071304;28;20044;-81
2023/12/15 00:05:14;;;;;;;70.30;25.25;;;4.80;83.90;;;;;;5071588;28;20546;-82
2023/12/15 00:07:58;;;;;;;67.78;24.88;;;4.80;83.80;;;;;;5071914;28;20158;-81
2023/12/15 00:10:42;;;;;;;77.72;27.05;;;4.80;83.90;;;;;;5072067;28;20052;-81
2023/12/15 00:13:26;;;;;;;69.15;25.55;;;4.80;83.90;;;;;;5071149;28;20086;-81
2023/12/15 00:16:10;;;;;;;66.55;26.92;;;4.80;84.00;;;;;;5071645;28;20630;-81
2023/12/15 00:18:54;;;;;;;72.20;29.38;;;4.80;84.10;;;;;;5071759;28;20048;-81
2023/12/15 00:21:38;;;;;;;68.50;26.67;;;4.80;84.10;;;;;;5070878;28;20043;-82
2023/12/15 00:24:22;;;;;;;64.50;26.20;;;4.90;84.10;;;;;;5071130;28;20048;-82
2023/12/15 00:27:06;;;;;;;76.75;29.05;;;4.90;84.10;;;;;;5071664;28;20109;-82
2023/12/15 00:29:50;;;;;;;70.97;27.15;;;4.90;84.10;;;;;;5056273;28;20083;-82
2023/12/15 00:32:34;;;;;;;72.97;28.33;;;4.90;84.10;;;;;;5060189;28;20067;-82
2023/12/15 00:35:18;;;;;;;73.32;28.25;;;4.90;84.10;;;;;;5055697;28;20503;-82
2023/12/15 00:38:02;;;;;;;69.25;28.02;;;5.00;84.10;;;;;;5071429;28;20503;-82
2023/12/15 00:40:46;;;;;;;79.40;27.83;;;5.00;84.20;;;;;;5071291;28;20039;-82
2023/12/15 00:43:30;;;;;;;76.28;28.17;;;5.00;84.20;;;;;;5084184;28;20114;-82
2023/12/15 00:46:15;;;;;;;74.22;28.45;;;5.00;84.20;;;;;;5060089;28;20101;-82
2023/12/15 00:48:59;;;;;;;68.70;28.42;;;5.00;84.20;;;;;;5055955;28;20075;-82
2023/12/15 00:51:43;;;;;;;77.45;28.88;;;5.00;84.20;;;;;;5070995;28;20071;-82
2023/12/15 00:54:27;;;;;;;79.88;28.60;;;5.00;84.20;;;;;;5070939;28;20457;-82
2023/12/15 00:57:11;;;;;;;84.68;28.65;;;5.10;84.30;;;;;;5070821;28;20059;-82
2023/12/15 00:59:56;;;;;;;85.82;28.85;;;5.10;84.20;;;;;;5071289;28;20055;-82
2023/12/15 01:02:40;;;;;;;86.85;30.77;;;5.20;84.30;;;;;;5070543;28;20557;-82
2023/12/15 01:05:24;;;;;;;90.78;31.60;;;5.10;84.30;;;;;;5070496;28;20043;-82
2023/12/15 01:08:09;;;;;;;87.65;30.65;;;5.10;84.30;;;;;;5071259;28;20496;-82
2023/12/15 01:10:53;;;;;;;82.93;28.48;;;5.20;84.40;;;;;;5070809;28;20059;-81
2023/12/15 01:13:37;;;;;;;94.97;30.17;;;5.20;84.40;;;;;;5070473;28;20090;-82
2023/12/15 01:16:21;;;;;;;111.75;33.92;;;5.20;84.40;;;;;;5073942;28;20047;-82
2023/12/15 01:19:05;;;;;;;98.18;32.03;;;5.20;84.40;;;;;;5075273;28;20405;-81
2023/12/15 01:21:50;;;;;;;101.15;34.30;;;5.20;84.40;;;;;;5062835;28;20043;-81
2023/12/15 01:24:34;;;;;;;112.80;33.85;;;5.20;84.40;;;;;;5074428;28;20043;-82
2023/12/15 01:27:18;;;;;;;105.10;33.03;;;5.30;84.40;;;;;;5075149;28;20086;-81
2023/12/15 01:30:03;;;;;;;97.25;32.88;;;5.30;84.40;;;;;;5074834;28;20518;-81
2023/12/15 01:32:47;;;;;;;98.53;34.03;;;5.30;84.40;;;;;;5074430;28;20035;-81
2023/12/15 01:35:31;;;;;;;100.70;34.08;;;5.30;84.50;;;;;;5074161;28;20052;-82
2023/12/15 01:38:15;;;;;;;105.25;33.55;;;5.30;84.50;;;;;;5074750;28;20404;-81
2023/12/15 01:40:59;;;;;;;103.30;34.30;;;5.30;84.60;;;;;;5073726;28;20067;-82
2023/12/15 01:43:43;;;;;;;115.90;34.72;;;5.30;84.50;;;;;;5069998;28;20042;-82
2023/12/15 01:46:27;;;;;;;116.70;36.63;;;5.40;84.60;;;;;;5074469;28;20120;-82
2023/12/15 01:49:11;;;;;;;111.43;35.03;;;5.40;84.50;;;;;;5074284;28;20071;-82
2023/12/15 01:51:55;;;;;;;111.68;35.75;;;5.40;84.60;;;;;;5074706;28;20412;-82
2023/12/15 01:54:40;;;;;;;112.32;35.65;;;5.40;84.60;;;;;;5074034;28;20038;-82
2023/12/15 01:57:24;;;;;;;105.85;34.25;;;5.40;84.60;;;;;;5074174;28;20077;-81
2023/12/15 02:00:08;;;;;;;110.10;36.00;;;5.50;84.60;;;;;;5074562;28;20039;-82
2023/12/15 02:02:52;;;;;;;104.50;33.13;;;5.50;84.60;;;;;;5073631;28;20546;-82
2023/12/15 02:05:36;;;;;;;121.25;35.60;;;5.50;84.60;;;;;;5073913;28;20060;-82
2023/12/15 02:08:20;;;;;;;110.50;35.05;;;5.50;84.60;;;;;;5072762;28;20450;-82
2023/12/15 02:11:04;;;;;;;113.97;34.47;;;5.50;84.60;;;;;;5070578;28;20496;-82
2023/12/15 02:13:48;;;;;;;121.28;35.78;;;5.50;84.60;;;;;;5073727;28;20105;-82
2023/12/15 02:16:35;;;;;;;112.97;35.47;;;5.50;84.60;;;;;;5073713;28;20198;-82
2023/12/15 02:19:19;;;;;;;112.22;35.08;;;5.60;84.70;;;;;;5074316;28;20503;-82
2023/12/15 02:22:03;;;;;;;127.05;36.13;;;5.60;84.70;;;;;;5073943;28;20036;-81
2023/12/15 02:24:48;;;;;;;116.40;34.60;;;5.60;84.70;;;;;;5073535;28;20039;-82
2023/12/15 02:27:32;;;;;;;114.47;35.10;;;5.60;84.70;;;;;;5060084;28;20075;-82
2023/12/15 02:30:17;;;;;;;128.50;37.22;;;5.60;84.70;;;;;;5073892;28;20472;-81
2023/12/15 02:33:01;;;;;;;113.22;36.95;;;5.60;84.80;;;;;;5073913;28;20178;-82
2023/12/15 02:35:47;;;;;;;121.65;37.58;;;5.70;84.70;;;;;;5073175;28;20511;-82
2023/12/15 02:38:32;;;;;;;122.90;36.35;;;5.70;84.70;;;;;;5073683;28;20056;-81
2023/12/15 02:41:16;;;;;;;129.65;37.88;;;5.70;84.80;;;;;;5073684;28;20040;-82
2023/12/15 02:44:01;;;;;;;125.18;36.97;;;5.70;84.80;;;;;;5073348;28;20455;-82
2023/12/15 02:46:44;;;;;;;127.22;37.05;;;5.70;84.80;;;;;;5057957;28;20409;-82
2023/12/15 02:49:29;;;;;;;127.65;39.40;;;5.80;84.80;;;;;;5073525;28;20093;-82
2023/12/15 02:52:13;;;;;;;126.40;37.00;;;5.80;84.80;;;;;;5073662;28;20044;-82
2023/12/15 02:54:57;;;;;;;146.23;36.53;;;5.80;84.80;;;;;;5060335;28;20039;-81
2023/12/15 02:57:41;;;;;;;121.95;37.72;;;5.80;84.80;;;;;;5072454;28;20067;-82
2023/12/15 03:00:25;;;;;;;121.10;37.90;;;5.80;84.90;;;;;;5073522;28;20128;-82
2023/12/15 03:03:09;;;;;;;128.07;36.45;;;5.80;84.90;;;;;;5058088;28;20078;-82
2023/12/15 03:05:53;;;;;;;130.40;39.15;;;5.80;84.80;;;;;;5072862;28;20129;-82
2023/12/15 03:08:37;;;;;;;147.40;37.53;;;5.80;84.90;;;;;;5061050;28;20158;-82
2023/12/15 03:11:22;;;;;;;159.50;42.97;;;5.90;84.90;;;;;;5073114;28;20040;-82
2023/12/15 03:14:07;;;;;;;162.75;42.72;;;5.90;84.90;;;;;;5073327;28;20496;-82
2023/12/15 03:16:51;;;;;;;159.90;40.75;;;5.90;84.90;;;;;;5072218;28;20611;-82
2023/12/15 03:19:39;;;;;;;183.45;43.00;;;5.80;84.90;;;;;;5073167;28;20181;-82
2023/12/15 03:22:23;;;;;;;186.57;43.72;;;5.90;84.90;;;;;;5073044;28;20411;-82
2023/12/15 03:25:07;;;;;;;181.77;42.55;;;5.80;84.90;;;;;;5072678;28;20565;-82
2023/12/15 03:27:51;;;;;;;165.27;40.42;;;5.80;84.90;;;;;;5072437;28;20071;-82
2023/12/15 03:30:35;;;;;;;159.73;39.00;;;5.80;84.90;;;;;;5072740;28;20408;-82
2023/12/15 03:33:25;;;;;;;170.50;40.50;;;5.80;85.00;;;;;;5072616;28;20071;-82
2023/12/15 03:36:09;;;;;;;144.02;37.17;;;5.80;85.00;;;;;;5072646;28;20051;-82
2023/12/15 03:38:53;;;;;;;167.25;40.45;;;5.80;84.90;;;;;;5071323;28;20569;-82
2023/12/15 03:41:38;;;;;;;154.80;38.72;;;5.80;84.90;;;;;;5072159;28;20495;-81
2023/12/15 03:44:22;;;;;;;155.82;39.40;;;5.80;84.90;;;;;;5069412;28;20043;-82
2023/12/15 03:47:09;;;;;;;147.30;39.65;;;5.80;84.90;;;;;;5067415;28;20039;-82
2023/12/15 03:49:54;;;;;;;149.57;39.55;;;5.70;85.00;;;;;;5056832;28;20090;-82
2023/12/15 03:52:38;;;;;;;145.02;38.65;;;5.70;84.90;;;;;;5072327;28;20035;-82
2023/12/15 03:55:22;;;;;;;153.45;36.75;;;5.70;85.00;;;;;;5057215;28;20040;-81
2023/12/15 03:58:06;;;;;;;127.43;35.47;;;5.70;84.90;;;;;;5071812;28;20101;-81
2023/12/15 04:00:51;;;;;;;133.60;36.33;;;5.70;85.00;;;;;;5071556;28;20048;-82
2023/12/15 04:03:36;;;;;;;129.68;36.38;;;5.70;85.00;;;;;;5072323;28;20068;-82
2023/12/15 04:06:20;;;;;;;113.38;35.15;;;5.70;85.00;;;;;;5072055;28;20059;-81
2023/12/15 04:09:04;;;;;;;121.80;36.15;;;5.70;85.00;;;;;;5071424;28;20399;-82
2023/12/15 04:11:48;;;;;;;119.22;34.78;;;5.70;85.00;;;;;;5070816;28;20035;-82
2023/12/15 04:14:33;;;;;;;106.38;33.35;;;5.80;85.00;;;;;;5056771;28;20040;-81
2023/12/15 04:17:18;;;;;;;133.57;36.38;;;5.80;85.00;;;;;;5071698;28;20074;-81
2023/12/15 04:20:02;;;;;;;110.03;32.92;;;5.70;85.00;;;;;;5071274;28;20071;-82
2023/12/15 04:22:46;;;;;;;125.20;34.35;;;5.80;85.00;;;;;;5085193;28;20079;-82
2023/12/15 04:25:31;;;;;;;116.95;33.67;;;5.80;85.00;;;;;;5071706;28;20311;-81
2023/12/15 04:28:15;;;;;;;120.43;32.92;;;5.80;85.00;;;;;;5084418;28;20059;-82
2023/12/15 04:30:59;;;;;;;112.68;32.00;;;5.80;85.00;;;;;;5071250;28;20047;-82
2023/12/15 04:33:43;;;;;;;133.95;34.50;;;5.80;85.00;;;;;;5071517;28;20075;-82
2023/12/15 04:36:27;;;;;;;117.53;32.92;;;5.80;85.00;;;;;;5071748;28;20113;-82
2023/12/15 04:39:12;;;;;;;116.07;34.22;;;5.80;85.00;;;;;;5071063;28;20122;-82
2023/12/15 04:41:56;;;;;;;117.90;34.05;;;5.80;85.10;;;;;;5070960;28;20512;-82
2023/12/15 04:44:40;;;;;;;106.47;31.52;;;5.80;85.00;;;;;;5071644;28;20146;-81
2023/12/15 04:47:24;;;;;;;105.97;33.10;;;5.70;85.00;;;;;;5071418;28;20039;-82
2023/12/15 04:50:09;;;;;;;107.80;31.27;;;5.70;85.00;;;;;;5070147;28;20400;-82
2023/12/15 04:52:53;;;;;;;98.07;32.75;;;5.60;84.90;;;;;;5071446;28;20075;-82
2023/12/15 04:55:37;;;;;;;97.70;31.15;;;5.60;84.90;;;;;;5071272;28;20046;-82
2023/12/15 04:58:21;;;;;;;101.22;32.15;;;5.60;85.00;;;;;;5071737;28;20051;-81
2023/12/15 05:01:09;;;;;;;98.35;30.50;;;5.60;84.90;;;;;;5070655;28;20039;-82
2023/12/15 05:03:54;;;;;;;88.45;30.63;;;5.60;84.90;;;;;;5071388;28;20119;-82
2023/12/15 05:06:37;;;;;;;95.50;29.50;;;5.60;84.90;;;;;;5071430;28;20043;-82
2023/12/15 05:09:22;;;;;;;96.20;29.85;;;5.50;84.90;;;;;;5070932;28;20098;-82
2023/12/15 05:12:08;;;;;;;109.50;31.52;;;5.60;84.90;;;;;;5070802;28;20121;-81
2023/12/15 05:14:52;;;;;;;101.82;28.80;;;5.50;84.90;;;;;;5057333;28;20564;-81
2023/12/15 05:17:37;;;;;;;85.75;28.50;;;5.50;84.90;;;;;;5084338;28;20105;-81
2023/12/15 05:20:21;;;;;;;102.68;29.25;;;5.50;84.90;;;;;;5070551;28;20063;-82
2023/12/15 05:23:05;;;;;;;105.80;29.83;;;5.40;84.80;;;;;;5070697;28;20071;-82
2023/12/15 05:25:49;;;;;;;89.00;26.85;;;5.40;84.90;;;;;;5055985;28;20064;-82
2023/12/15 05:28:34;;;;;;;87.60;28.35;;;5.40;84.80;;;;;;5084192;28;20055;-82
2023/12/15 05:31:18;;;;;;;87.18;27.38;;;5.40;84.80;;;;;;5070666;28;20039;-81
2023/12/15 05:34:03;;;;;;;89.72;28.15;;;5.40;84.90;;;;;;5070611;28;20648;-82
2023/12/15 05:36:47;;;;;;;90.72;28.98;;;5.40;84.90;;;;;;5070768;28;20072;-82
2023/12/15 05:39:31;;;;;;;73.47;26.67;;;5.40;84.90;;;;;;5070418;28;20561;-82
2023/12/15 05:42:16;;;;;;;87.15;28.15;;;5.40;84.90;;;;;;5069283;28;20109;-81
2023/12/15 05:45:00;;;;;;;78.43;24.30;;;5.40;84.90;;;;;;5070901;28;20039;-82
2023/12/15 05:47:44;;;;;;;73.97;25.10;;;5.30;85.00;;;;;;5070961;28;20055;-81
2023/12/15 05:50:28;;;;;;;90.70;24.60;;;5.30;84.80;;;;;;5070594;28;20115;-82
2023/12/15 05:53:12;;;;;;;84.22;26.30;;;5.20;84.90;;;;;;5083740;28;20048;-82
2023/12/15 05:55:57;;;;;;;90.15;26.33;;;5.20;84.90;;;;;;5070021;28;20067;-82
2023/12/15 05:58:41;;;;;;;87.72;25.95;;;5.10;84.80;;;;;;5070805;28;20408;-81
2023/12/15 06:01:25;;;;;;;77.13;25.88;;;5.10;84.80;;;;;;5066755;28;20547;-81
2023/12/15 06:04:09;;;;;;;79.22;25.17;;;5.00;84.80;;;;;;5067537;28;20043;-81
2023/12/15 06:06:53;;;;;;;78.03;25.05;;;5.00;84.80;;;;;;5069565;28;20045;-81
2023/12/15 06:09:37;;;;;;;73.60;23.77;;;5.00;84.70;;;;;;5065040;28;20082;-81
2023/12/15 06:12:21;;;;;;;77.65;23.42;;;5.00;84.80;;;;;;5054091;28;20075;-81
2023/12/15 06:15:08;;;;;;;76.32;23.90;;;5.00;84.80;;;;;;5069515;28;20506;-82
2023/12/15 06:17:52;;;;;;;70.80;24.38;;;5.00;84.90;;;;;;5070301;28;20534;-81
2023/12/15 06:20:36;;;;;;;76.70;24.80;;;5.00;84.90;;;;;;5074267;28;20047;-81
2023/12/15 06:23:21;;;;;;;76.57;24.02;;;5.10;84.90;;;;;;5056183;28;20103;-80
2023/12/15 06:26:06;;;;;;;76.30;24.23;;;5.10;85.00;;;;;;5065962;28;20070;-81
2023/12/15 06:28:50;;;;;;;73.32;23.45;;;5.10;85.00;;;;;;5065436;28;20040;-82
2023/12/15 06:31:35;;;;;;;75.85;24.42;;;5.20;85.00;;;;;;5070091;28;20047;-82
2023/12/15 06:34:19;;;;;;;83.05;25.08;;;5.20;85.00;;;;;;5069464;28;20082;-82
2023/12/15 06:37:03;;;;;;;83.95;26.02;;;5.20;85.00;;;;;;5066398;28;20508;-81
2023/12/15 06:39:50;;;;;;;88.75;26.05;;;5.20;85.00;;;;;;5061332;28;20048;-82
2023/12/15 06:42:34;;;;;;;67.97;23.33;;;5.30;85.00;;;;;;5065795;28;20040;-82
2023/12/15 06:45:18;;;;;;;73.13;23.15;;;5.20;84.90;;;;;;5053498;28;20408;-82
2023/12/15 06:48:03;;;;;;;74.25;23.00;;;5.20;85.00;;;;;;5069127;28;20127;-82
2023/12/15 06:50:47;;;;;;;74.95;22.13;;;5.10;84.90;;;;;;5065933;28;20036;-82
2023/12/15 06:53:31;;;;;;;87.53;23.77;;;5.10;85.00;;;;;;5061685;28;20127;-82
2023/12/15 06:56:15;;;;;;;73.38;23.58;;;5.10;85.00;;;;;;5069046;28;20056;-82
2023/12/15 06:58:59;;;;;;;71.45;22.83;;;5.00;85.00;;;;;;5066511;28;20043;-82
2023/12/15 07:01:43;;;;;;;86.03;23.92;;;5.00;84.90;;;;;;5059508;28;20082;-82
2023/12/15 07:04:27;;;;;;;81.68;24.48;;;5.00;84.90;;;;;;5064988;28;20040;-82
2023/12/15 07:07:11;;;;;;;83.05;24.05;;;5.00;84.90;;;;;;5048157;28;20435;-83
2023/12/15 07:09:55;;;;;;;85.35;22.48;;;4.90;84.90;;;;;;5058700;28;20040;-82
2023/12/15 07:12:40;;;;;;;81.05;24.17;;;4.90;84.90;;;;;;5058137;28;20404;-84
2023/12/15 07:15:27;;;;;;;91.45;23.95;;;4.90;84.90;;;;;;5047620;28;20039;-82
2023/12/15 07:18:12;;;;;;;101.00;27.60;;;4.80;84.90;;;;;;5068338;28;20052;-83
2023/12/15 07:20:55;;;;;;;87.70;25.38;;;4.80;84.90;;;;;;5072926;28;20114;-81
2023/12/15 07:23:40;;;;;;;98.63;26.10;;;4.80;85.00;;;;;;5072495;28;20043;-83
2023/12/15 07:26:24;;;;;;;97.65;24.73;;;4.80;84.90;;;;;;5072376;28;20094;-83
2023/12/15 07:29:08;;;;;;;93.07;25.52;;;4.80;85.00;;;;;;5057839;28;20115;-83
2023/12/15 07:31:52;;;;;;;81.88;23.45;;;4.80;84.90;;;;;;5072702;28;20039;-83
2023/12/15 07:34:36;;;;;;;90.03;23.77;;;4.80;84.90;;;;;;5085813;28;20572;-83
2023/12/15 07:37:20;;;;;;;86.10;25.02;;;4.80;85.00;;;;;;5085201;28;20086;-83
2023/12/15 07:40:05;;;;;;;79.40;22.13;;;4.80;84.90;;;;;;5072945;28;20064;-80
2023/12/15 07:42:49;;;;;;;82.55;23.73;;;4.80;84.90;;;;;;5057544;28;20043;-81
2023/12/15 07:45:34;;;;;;;77.22;22.08;;;4.70;84.90;;;;;;5071948;28;20067;-82
2023/12/15 07:48:17;;;;;;;84.68;23.35;;;4.80;85.00;;;;;;5072798;28;20035;-83
2023/12/15 07:51:03;;;;;;;82.72;22.15;;;4.70;85.00;;;;;;5085492;28;20043;-83
2023/12/15 07:53:48;;;;;;;83.28;22.70;;;4.70;84.90;;;;;;5072286;28;20520;-83
2023/12/15 07:56:33;;;;;;;86.40;22.27;;;4.70;84.90;;;;;;5071711;28;20128;-83
2023/12/15 07:59:17;;;;;;;70.20;21.55;;;4.70;85.00;;;;;;5072297;28;20051;-83
2023/12/15 08:02:02;;;;;;;73.25;23.75;;;4.70;84.90;;;;;;5072356;28;20052;-83
2023/12/15 08:04:46;;;;;;;71.97;19.73;;;4.70;84.90;;;;;;5056718;28;20056;-83
2023/12/15 08:07:30;;;;;;;70.70;20.65;;;4.80;84.90;;;;;;5071531;28;20051;-83
2023/12/15 08:10:14;;;;;;;65.38;19.70;;;4.80;85.00;;;;;;5072150;28;20066;-83
2023/12/15 08:12:59;;;;;;;67.53;20.80;;;4.80;85.00;;;;;;5056745;28;20042;-83
2023/12/15 08:15:43;;;;;;;69.57;19.45;;;4.80;85.00;;;;;;5071441;28;20725;-83
2023/12/15 08:18:27;;;;;;;69.55;19.20;;;4.90;85.00;;;;;;5071360;28;20086;-83
2023/12/15 08:21:12;;;;;;;73.22;20.27;;;4.90;85.00;;;;;;5085335;28;20207;-83
2023/12/15 08:23:55;;;;;;;57.35;20.20;;;4.90;85.00;;;;;;5071807;28;20120;-83
2023/12/15 08:26:40;;;;;;;70.18;19.20;;;5.00;85.00;;;;;;5071274;28;20048;-83
2023/12/15 08:29:24;;;;;;;68.78;18.20;;;5.00;85.00;;;;;;5071143;28;20097;-83
2023/12/15 08:32:08;;;;;;;56.00;17.13;;;5.10;85.00;;;;;;5071486;28;20060;-83
2023/12/15 08:34:53;;;;;;;55.75;16.90;;;5.10;85.00;;;;;;5071771;28;20048;-83
2023/12/15 08:37:37;;;;;;;54.85;18.25;;;5.10;85.00;;;;;;5071185;28;20117;-83
2023/12/15 08:40:21;;;;;;;58.85;16.80;;;5.20;85.00;;;;;;5071258;28;20527;-83
2023/12/15 08:43:05;;;;;;;47.05;17.30;;;5.20;85.00;;;;;;5071581;28;20071;-83
2023/12/15 08:45:49;;;;;;;54.78;16.33;;;5.20;85.00;;;;;;5070939;28;20032;-83
2023/12/15 08:48:33;;;;;;;60.08;16.17;;;5.30;85.00;;;;;;5077660;28;20043;-83
2023/12/15 08:51:18;;;;;;;53.13;16.05;;;5.30;85.00;;;;;;5059595;28;20075;-83
2023/12/15 08:54:02;;;;;;;38.40;14.80;;;5.40;85.00;;;;;;5068501;28;20039;-83
2023/12/15 08:56:46;;;;;;;59.38;15.20;;;5.40;85.00;;;;;;5059560;28;20040;-83
2023/12/15 08:59:30;;;;;;;60.92;15.50;;;5.50;84.90;;;;;;5067570;28;20048;-84
2023/12/15 09:02:14;;;;;;;47.45;14.40;;;5.50;85.00;;;;;;5069618;28;20462;-83
2023/12/15 09:05:00;;;;;;;54.63;14.57;;;5.50;85.00;;;;;;5043474;28;20132;-83
2023/12/15 09:07:44;;;;;;;57.03;15.55;;;5.60;85.00;;;;;;5052134;28;20044;-82
2023/12/15 09:10:33;;;;;;;45.95;15.25;;;5.60;84.90;;;;;;5069816;28;20090;-82
2023/12/15 09:13:18;;;;;;;47.47;13.88;;;5.70;84.90;;;;;;5069525;28;20495;-82
2023/12/15 09:16:02;;;;;;;43.35;13.48;;;5.70;84.90;;;;;;5067742;28;20095;-84
2023/12/15 09:18:46;;;;;;;49.92;14.98;;;5.60;84.90;;;;;;5057070;28;20409;-84
2023/12/15 09:21:31;;;;;;;47.67;13.43;;;5.60;84.80;;;;;;5084586;28;20055;-84
2023/12/15 09:24:15;;;;;;;35.88;12.68;;;5.60;84.80;;;;;;5071190;28;20098;-88
2023/12/15 09:27:00;;;;;;;40.90;12.57;;;5.60;84.90;;;;;;5070983;28;20044;-86
2023/12/15 09:29:44;;;;;;;48.22;13.35;;;5.60;84.90;;;;;;5070653;28;20118;-85
2023/12/15 09:32:28;;;;;;;44.67;11.57;;;5.60;84.90;;;;;;5071166;28;20078;-86
2023/12/15 09:35:13;;;;;;;49.97;12.90;;;5.70;84.80;;;;;;5084186;28;20043;-86
2023/12/15 09:37:56;;;;;;;40.95;11.55;;;5.70;84.90;;;;;;5074554;28;20236;-86
2023/12/15 09:40:41;;;;;;;45.22;13.23;;;5.70;84.90;;;;;;5074705;28;20130;-85
2023/12/15 09:43:25;;;;;;;41.35;11.02;;;5.80;85.00;;;;;;5075044;28;20094;-89
2023/12/15 09:46:09;;;;;;;43.83;10.70;;;5.90;85.00;;;;;;5075013;28;20044;-86
2023/12/15 09:48:54;;;;;;;40.53;10.93;;;5.90;84.90;;;;;;5074158;28;20039;-89
2023/12/15 09:51:42;;;;;;;38.00;10.60;;;6.10;85.00;;;;;;5074497;28;20098;-85
2023/12/15 09:54:28;;;;;;;37.25;10.18;;;6.10;84.90;;;;;;5073555;28;20032;-85
2023/12/15 09:57:13;;;;;;;54.67;12.48;;;6.20;84.90;;;;;;5061322;28;20051;-87
2023/12/15 09:59:58;;;;;;;32.75;9.25;;;6.30;84.80;;;;;;5056518;28;20048;-87
2023/12/15 10:02:42;;;;;;;38.95;9.20;;;6.40;84.80;;;;;;5057988;28;20094;-87
2023/12/15 10:05:28;;;;;;;44.72;10.02;;;6.50;84.90;;;;;;5063330;28;20495;-87
2023/12/15 10:08:12;;;;;;;43.47;9.80;;;6.50;84.90;;;;;;5061095;28;20047;-87
2023/12/15 10:10:57;;;;;;;28.58;7.25;;;6.50;84.60;;;;;;5069159;28;20082;-87
2023/12/15 10:13:41;;;;;;;37.65;7.88;;;6.60;84.70;;;;;;5063076;28;20036;-85
2023/12/15 10:16:29;;;;;;;30.85;9.48;;;6.60;84.50;;;;;;5041790;28;20048;-87
2023/12/15 10:19:13;;;;;;;44.47;10.00;;;6.70;84.50;;;;;;5064327;28;20041;-86
2023/12/15 10:21:57;;;;;;;38.75;9.15;;;6.70;84.50;;;;;;5056072;28;20119;-86
2023/12/15 10:24:41;;;;;;;40.08;7.78;;;6.70;84.50;;;;;;5059459;28;20055;-84
2023/12/15 10:27:26;;;;;;;40.22;8.25;;;6.80;84.60;;;;;;5054007;28;20440;-88
2023/12/15 10:30:11;;;;;;;37.53;9.13;;;6.80;84.60;;;;;;5066958;28;20508;-88
2023/12/15 10:32:59;;;;;;;44.17;8.93;;;6.80;84.70;;;;;;5081214;28;20083;-86
2023/12/15 10:35:47;;;;;;;37.92;8.32;;;6.80;84.60;;;;;;5057955;28;20079;-85
2023/12/15 10:38:31;;;;;;;36.25;8.45;;;6.80;84.60;;;;;;5047645;28;20242;-88
2023/12/15 10:41:17;;;;;;;31.30;8.70;;;6.80;84.70;;;;;;5081791;28;20120;-86
2023/12/15 10:44:01;;;;;;;34.03;7.95;;;6.80;84.50;;;;;;5043132;28;20051;-85
2023/12/15 10:46:47;;;;;;;37.72;9.07;;;6.80;84.50;;;;;;5059518;28;20067;-85
2023/12/15 10:49:32;;;;;;;41.88;8.57;;;6.90;84.40;;;;;;5086425;28;20043;-86
2023/12/15 10:52:21;;;;;;;36.95;9.40;;;6.90;84.30;;;;;;5057559;28;20591;-86
2023/12/15 10:55:07;;;;;;;37.83;9.27;;;6.90;84.20;;;;;;5081464;28;20097;-86
2023/12/15 10:57:51;;;;;;;29.02;7.78;;;6.90;84.10;;;;;;5067007;28;20044;-86
2023/12/15 11:00:36;;;;;;;36.80;7.53;;;6.90;83.90;;;;;;5061253;28;20055;-86
2023/12/15 11:03:21;;;;;;;67.72;9.52;;;7.00;84.10;;;;;;5079836;28;20046;-86
2023/12/15 11:06:05;;;;;;;39.40;8.93;;;7.00;84.00;;;;;;5056778;28;20421;-86
2023/12/15 11:08:50;;;;;;;42.00;8.70;;;7.10;83.90;;;;;;5059193;28;20120;-85
2023/12/15 11:11:34;;;;;;;33.15;7.50;;;7.10;84.00;;;;;;5051334;28;20120;-86
2023/12/15 11:14:18;;;;;;;38.05;8.25;;;7.10;83.90;;;;;;5061001;28;20036;-85
2023/12/15 11:17:03;;;;;;;42.75;8.65;;;7.20;83.70;;;;;;5062536;28;20070;-85
2023/12/15 11:19:51;;;;;;;27.85;6.95;;;7.20;83.70;;;;;;5073021;28;20058;-86
2023/12/15 11:23:11;;;;;;;34.97;7.95;;;7.20;83.40;;;;;;5073146;28;20055;-86
2023/12/15 11:25:59;;;;;;;42.00;10.82;;;7.20;83.90;;;;;;5074910;28;20503;-86
2023/12/15 11:28:43;;;;;;;39.17;8.38;;;7.20;83.80;;;;;;5057636;28;20102;-86
2023/12/15 11:31:28;;;;;;;41.75;7.68;;;7.30;83.70;;;;;;5072965;28;20048;-85
2023/12/15 11:34:42;;;;;;;40.67;8.50;;;7.30;83.80;;;;;;5072413;28;20051;-86
2023/12/15 11:37:27;;;;;;;43.17;7.25;;;7.30;83.90;;;;;;5072565;28;20405;-86
2023/12/15 11:40:15;;;;;;;38.03;8.18;;;7.30;83.70;;;;;;5072229;28;20067;-86
2023/12/15 11:43:04;;;;;;;42.63;8.30;;;7.40;83.90;;;;;;5072187;28;20163;-86
2023/12/15 11:45:51;;;;;;;42.15;8.68;;;7.40;83.80;;;;;;5072548;28;20511;-86
2023/12/15 11:48:35;;;;;;;36.63;8.43;;;7.40;83.80;;;;;;5073022;28;20047;-86
2023/12/15 11:51:25;;;;;;;32.85;7.55;;;7.50;83.80;;;;;;5072411;28;20035;-86
2023/12/15 11:54:09;;;;;;;32.38;7.53;;;7.50;83.80;;;;;;5084930;28;20063;-85
2023/12/15 11:56:54;;;;;;;30.90;6.50;;;7.50;83.80;;;;;;5085658;28;20055;-86
2023/12/15 11:59:40;;;;;;;37.67;7.57;;;7.40;83.50;;;;;;5072033;28;20226;-85
2023/12/15 12:02:25;;;;;;;32.47;7.43;;;7.40;83.60;;;;;;5072172;28;20035;-85
2023/12/15 12:05:10;;;;;;;41.50;7.43;;;7.40;83.50;;;;;;5084911;28;20544;-86
2023/12/15 12:07:54;;;;;;;40.05;7.50;;;7.40;82.90;;;;;;5072004;28;20141;-86
2023/12/15 12:10:40;;;;;;;34.22;7.30;;;7.40;83.10;;;;;;5072178;28;20389;-85
2023/12/15 12:13:33;;;;;;;31.35;8.00;;;7.40;83.40;;;;;;5072141;28;20166;-86
2023/12/15 12:16:17;;;;;;;39.00;6.28;;;7.50;83.30;;;;;;5071326;28;20618;-86
2023/12/15 12:19:02;;;;;;;45.25;9.73;;;7.60;83.20;;;;;;5059808;28;20075;-86
2023/12/15 12:21:46;;;;;;;36.03;7.78;;;7.70;83.20;;;;;;5071791;28;20050;-86
2023/12/15 12:24:31;;;;;;;45.15;7.85;;;7.70;83.30;;;;;;5071884;28;20051;-85
2023/12/15 12:27:14;;;;;;;36.03;7.00;;;7.70;83.10;;;;;;5071295;28;20051;-86
2023/12/15 12:30:10;;;;;;;32.28;7.18;;;7.70;83.20;;;;;;5084883;28;20060;-85
2023/12/15 12:32:54;;;;;;;36.92;7.07;;;7.70;83.30;;;;;;5071764;28;20038;-86
2023/12/15 12:35:38;;;;;;;23.00;6.40;;;7.70;83.20;;;;;;5071589;28;20043;-86
2023/12/15 12:38:22;;;;;;;32.50;7.22;;;7.80;83.00;;;;;;5084684;28;20067;-85
2023/12/15 12:41:08;;;;;;;35.03;7.75;;;7.80;82.90;;;;;;5071129;28;20113;-86
2023/12/15 12:43:52;;;;;;;32.28;6.45;;;7.80;83.10;;;;;;5071488;28;20090;-86
2023/12/15 12:46:37;;;;;;;47.72;10.65;;;7.90;83.30;;;;;;5084945;28;20051;-85
2023/12/15 12:49:22;;;;;;;38.22;6.75;;;7.90;83.00;;;;;;5055754;28;20093;-86
2023/12/15 12:52:06;;;;;;;42.42;7.50;;;7.90;83.00;;;;;;5070852;28;20052;-86
2023/12/15 12:54:50;;;;;;;33.03;7.22;;;8.00;83.00;;;;;;5071451;28;20102;-86
2023/12/15 12:57:34;;;;;;;30.30;7.20;;;8.00;83.00;;;;;;5071337;28;20067;-86
2023/12/15 13:00:19;;;;;;;40.88;7.68;;;8.00;82.90;;;;;;5070924;28;20042;-86
2023/12/15 13:03:04;;;;;;;40.50;6.95;;;8.10;82.50;;;;;;5071165;28;20047;-85
2023/12/15 13:05:48;;;;;;;37.10;6.30;;;8.10;82.70;;;;;;5084573;28;20507;-86
2023/12/15 13:08:32;;;;;;;43.75;7.68;;;8.10;82.60;;;;;;5071450;28;20081;-86
2023/12/15 13:11:16;;;;;;;34.88;5.97;;;8.20;82.40;;;;;;5069895;28;20040;-86
2023/12/15 13:14:01;;;;;;;40.28;7.55;;;8.20;82.40;;;;;;5084508;28;20056;-85
2023/12/15 13:16:46;;;;;;;30.73;6.13;;;8.20;82.70;;;;;;5071114;28;20086;-87
2023/12/15 13:19:30;;;;;;;32.55;7.50;;;8.20;82.30;;;;;;5055769;28;20523;-87
2023/12/15 13:22:14;;;;;;;29.77;6.20;;;8.20;82.60;;;;;;5084032;28;20046;-86
2023/12/15 13:24:58;;;;;;;33.30;7.45;;;8.20;82.10;;;;;;5084228;28;20404;-86
2023/12/15 13:27:43;;;;;;;34.55;7.00;;;8.20;82.30;;;;;;5071269;28;20528;-85
2023/12/15 13:30:28;;;;;;;31.88;6.82;;;8.20;81.80;;;;;;5070405;28;20162;-86
2023/12/15 13:33:13;;;;;;;35.05;6.60;;;8.20;82.10;;;;;;5055437;28;20549;-85
2023/12/15 13:35:58;;;;;;;31.73;6.10;;;8.20;82.20;;;;;;5071107;28;20035;-86
2023/12/15 13:38:43;;;;;;;26.10;5.43;;;8.20;81.90;;;;;;5083994;28;20118;-86
2023/12/15 13:41:28;;;;;;;47.38;7.43;;;8.30;82.10;;;;;;5070579;28;20070;-86
2023/12/15 13:44:12;;;;;;;37.00;6.30;;;8.30;82.20;;;;;;5070302;28;20093;-87
2023/12/15 13:46:56;;;;;;;30.17;5.50;;;8.30;82.30;;;;;;5070868;28;20083;-86
2023/12/15 13:49:40;;;;;;;39.00;7.60;;;8.30;81.90;;;;;;5061167;28;20447;-86
2023/12/15 13:52:24;;;;;;;29.83;6.75;;;8.30;81.20;;;;;;5070328;28;20047;-87
2023/12/15 13:55:08;;;;;;;31.40;5.50;;;8.30;81.50;;;;;;5070828;28;20059;-86
2023/12/15 13:57:52;;;;;;;36.03;5.82;;;8.20;81.70;;;;;;5070768;28;20186;-86
2023/12/15 14:00:37;;;;;;;33.13;7.65;;;8.20;81.70;;;;;;5070488;28;20040;-86
2023/12/15 14:03:21;;;;;;;24.35;5.75;;;8.10;81.50;;;;;;5083546;28;20306;-85
2023/12/15 14:06:06;;;;;;;31.75;5.15;;;8.10;81.90;;;;;;5070494;28;20043;-86
2023/12/15 14:08:50;;;;;;;37.30;6.18;;;8.10;81.90;;;;;;5083954;28;20106;-86